Terminal Aerodrome Forecast
Issued by NWS

Current Version | Previous Version | Graphics & Text | Print | Product List | Glossary On
Versions: 1 2 3 4 5 6 7 8 9 10 11 12 13 14 15 16 17 18 19 20 21 22 23 24 25 26 27
000
FTUS41 KILN 270534
TAFLUK
TAF
KLUK 270534Z 2706/2806 00000KT 2SM BR SCT150 BKN250
      TEMPO 2706/2709 1/2SM FG SCT002
     FM271100 00000KT 3SM BR SCT150 BKN250
     FM271300 20004KT P6SM VCSH SCT040 BKN150
     FM271500 20007KT P6SM SCT040 BKN250
     FM280100 00000KT P6SM BKN150
     FM280500 00000KT 5SM BR BKN150=

USA.gov is the U.S. government's official web portal to all federal, state and local government web resources and services.